sensor_id;sensor_type;location;lat;lon;timestamp;P1;durP1;ratioP1;P2;durP2;ratioP2
33876;SDS011;20166;51.738;7.158;2024-01-30T00:02:23;7.93;;;4.63;;
33876;SDS011;20166;51.738;7.158;2024-01-30T00:05:09;6.03;;;3.73;;
33876;SDS011;20166;51.738;7.158;2024-01-30T00:07:56;7.57;;;4.40;;
33876;SDS011;20166;51.738;7.158;2024-01-30T00:10:44;6.20;;;3.87;;
33876;SDS011;20166;51.738;7.158;2024-01-30T00:13:30;6.53;;;4.00;;
33876;SDS011;20166;51.738;7.158;2024-01-30T00:16:19;7.20;;;4.60;;
33876;SDS011;20166;51.738;7.158;2024-01-30T00:19:06;6.73;;;4.20;;
33876;SDS011;20166;51.738;7.158;2024-01-30T00:21:53;6.87;;;3.93;;
33876;SDS011;20166;51.738;7.158;2024-01-30T00:24:39;5.20;;;4.00;;
33876;SDS011;20166;51.738;7.158;2024-01-30T00:27:27;7.10;;;4.13;;
33876;SDS011;20166;51.738;7.158;2024-01-30T00:30:13;6.03;;;3.70;;
33876;SDS011;20166;51.738;7.158;2024-01-30T00:33:00;6.20;;;4.07;;
33876;SDS011;20166;51.738;7.158;2024-01-30T00:35:46;9.37;;;4.47;;
33876;SDS011;20166;51.738;7.158;2024-01-30T00:38:33;5.20;;;3.97;;
33876;SDS011;20166;51.738;7.158;2024-01-30T00:41:19;6.20;;;4.63;;
33876;SDS011;20166;51.738;7.158;2024-01-30T00:44:07;8.17;;;4.97;;
33876;SDS011;20166;51.738;7.158;2024-01-30T00:46:54;9.60;;;4.30;;
33876;SDS011;20166;51.738;7.158;2024-01-30T00:49:40;10.27;;;4.90;;
33876;SDS011;20166;51.738;7.158;2024-01-30T00:52:26;4.83;;;4.20;;
33876;SDS011;20166;51.738;7.158;2024-01-30T00:55:13;10.03;;;4.40;;
33876;SDS011;20166;51.738;7.158;2024-01-30T00:57:59;7.40;;;4.10;;
33876;SDS011;20166;51.738;7.158;2024-01-30T01:00:47;5.10;;;3.87;;
33876;SDS011;20166;51.738;7.158;2024-01-30T01:03:34;6.00;;;4.33;;
33876;SDS011;20166;51.738;7.158;2024-01-30T01:06:20;6.10;;;4.13;;
33876;SDS011;20166;51.738;7.158;2024-01-30T01:09:06;5.67;;;4.03;;
33876;SDS011;20166;51.738;7.158;2024-01-30T01:11:52;4.67;;;3.33;;
33876;SDS011;20166;51.738;7.158;2024-01-30T01:14:38;8.60;;;4.23;;
33876;SDS011;20166;51.738;7.158;2024-01-30T01:17:26;8.10;;;3.73;;
33876;SDS011;20166;51.738;7.158;2024-01-30T01:20:12;6.87;;;3.67;;
33876;SDS011;20166;51.738;7.158;2024-01-30T01:22:59;6.33;;;4.43;;
33876;SDS011;20166;51.738;7.158;2024-01-30T01:25:45;6.87;;;4.33;;
33876;SDS011;20166;51.738;7.158;2024-01-30T01:28:31;4.67;;;3.60;;
33876;SDS011;20166;51.738;7.158;2024-01-30T01:31:17;5.50;;;4.30;;
33876;SDS011;20166;51.738;7.158;2024-01-30T01:34:05;7.00;;;3.77;;
33876;SDS011;20166;51.738;7.158;2024-01-30T01:36:52;5.77;;;3.83;;
33876;SDS011;20166;51.738;7.158;2024-01-30T01:39:39;5.63;;;3.93;;
33876;SDS011;20166;51.738;7.158;2024-01-30T01:42:26;8.93;;;3.80;;
33876;SDS011;20166;51.738;7.158;2024-01-30T01:45:12;6.53;;;4.10;;
33876;SDS011;20166;51.738;7.158;2024-01-30T01:48:00;6.23;;;3.73;;
33876;SDS011;20166;51.738;7.158;2024-01-30T01:50:48;5.30;;;3.90;;
33876;SDS011;20166;51.738;7.158;2024-01-30T01:53:34;5.07;;;3.83;;
33876;SDS011;20166;51.738;7.158;2024-01-30T01:56:21;7.27;;;4.53;;
33876;SDS011;20166;51.738;7.158;2024-01-30T01:59:08;13.03;;;5.20;;
33876;SDS011;20166;51.738;7.158;2024-01-30T02:01:57;6.57;;;4.50;;
33876;SDS011;20166;51.738;7.158;2024-01-30T02:04:44;7.10;;;4.87;;
33876;SDS011;20166;51.738;7.158;2024-01-30T02:07:32;6.30;;;4.37;;
33876;SDS011;20166;51.738;7.158;2024-01-30T02:10:18;5.73;;;3.77;;
33876;SDS011;20166;51.738;7.158;2024-01-30T02:13:04;7.07;;;4.53;;
33876;SDS011;20166;51.738;7.158;2024-01-30T02:15:51;6.77;;;4.30;;
33876;SDS011;20166;51.738;7.158;2024-01-30T02:18:37;6.20;;;3.63;;
33876;SDS011;20166;51.738;7.158;2024-01-30T02:21:29;6.83;;;4.80;;
33876;SDS011;20166;51.738;7.158;2024-01-30T02:24:15;7.33;;;3.87;;
33876;SDS011;20166;51.738;7.158;2024-01-30T02:27:02;7.80;;;4.60;;
33876;SDS011;20166;51.738;7.158;2024-01-30T02:29:48;8.13;;;4.67;;
33876;SDS011;20166;51.738;7.158;2024-01-30T02:32:35;6.37;;;3.83;;
33876;SDS011;20166;51.738;7.158;2024-01-30T02:35:21;7.97;;;4.37;;
33876;SDS011;20166;51.738;7.158;2024-01-30T02:38:08;6.50;;;4.33;;
33876;SDS011;20166;51.738;7.158;2024-01-30T02:40:54;6.37;;;4.27;;
33876;SDS011;20166;51.738;7.158;2024-01-30T02:43:41;10.67;;;4.57;;
33876;SDS011;20166;51.738;7.158;2024-01-30T02:46:27;10.83;;;5.47;;
33876;SDS011;20166;51.738;7.158;2024-01-30T02:49:13;5.93;;;4.43;;
33876;SDS011;20166;51.738;7.158;2024-01-30T02:52:00;8.00;;;4.80;;
33876;SDS011;20166;51.738;7.158;2024-01-30T02:54:47;7.20;;;4.30;;
33876;SDS011;20166;51.738;7.158;2024-01-30T02:57:34;8.80;;;5.17;;
33876;SDS011;20166;51.738;7.158;2024-01-30T03:00:20;6.73;;;4.77;;
33876;SDS011;20166;51.738;7.158;2024-01-30T03:03:06;5.37;;;4.67;;
33876;SDS011;20166;51.738;7.158;2024-01-30T03:05:53;8.43;;;5.23;;
33876;SDS011;20166;51.738;7.158;2024-01-30T03:08:39;5.87;;;4.30;;
33876;SDS011;20166;51.738;7.158;2024-01-30T03:11:26;4.63;;;3.57;;
33876;SDS011;20166;51.738;7.158;2024-01-30T03:14:13;6.33;;;4.60;;
33876;SDS011;20166;51.738;7.158;2024-01-30T03:16:59;6.27;;;4.10;;
33876;SDS011;20166;51.738;7.158;2024-01-30T03:19:45;8.30;;;4.77;;
33876;SDS011;20166;51.738;7.158;2024-01-30T03:22:31;7.63;;;4.77;;
33876;SDS011;20166;51.738;7.158;2024-01-30T03:25:17;7.37;;;4.37;;
33876;SDS011;20166;51.738;7.158;2024-01-30T03:28:05;9.30;;;5.07;;
33876;SDS011;20166;51.738;7.158;2024-01-30T03:30:52;5.83;;;4.00;;
33876;SDS011;20166;51.738;7.158;2024-01-30T03:33:38;9.20;;;5.80;;
33876;SDS011;20166;51.738;7.158;2024-01-30T03:36:24;7.33;;;4.57;;
33876;SDS011;20166;51.738;7.158;2024-01-30T03:39:10;6.77;;;4.27;;
33876;SDS011;20166;51.738;7.158;2024-01-30T03:41:57;5.33;;;3.90;;
33876;SDS011;20166;51.738;7.158;2024-01-30T03:44:44;7.10;;;4.50;;
33876;SDS011;20166;51.738;7.158;2024-01-30T03:47:30;8.13;;;4.70;;
33876;SDS011;20166;51.738;7.158;2024-01-30T03:50:17;9.13;;;4.10;;
33876;SDS011;20166;51.738;7.158;2024-01-30T03:53:03;6.33;;;3.53;;
33876;SDS011;20166;51.738;7.158;2024-01-30T03:55:50;8.93;;;4.70;;
33876;SDS011;20166;51.738;7.158;2024-01-30T03:58:36;6.93;;;4.63;;
33876;SDS011;20166;51.738;7.158;2024-01-30T04:01:24;5.60;;;3.63;;
33876;SDS011;20166;51.738;7.158;2024-01-30T04:04:10;9.57;;;4.33;;
33876;SDS011;20166;51.738;7.158;2024-01-30T04:06:56;5.93;;;4.10;;
33876;SDS011;20166;51.738;7.158;2024-01-30T04:09:43;5.53;;;3.77;;
33876;SDS011;20166;51.738;7.158;2024-01-30T04:12:29;6.50;;;3.90;;
33876;SDS011;20166;51.738;7.158;2024-01-30T04:15:15;11.63;;;4.93;;
33876;SDS011;20166;51.738;7.158;2024-01-30T04:18:03;6.67;;;4.63;;
33876;SDS011;20166;51.738;7.158;2024-01-30T04:20:50;7.70;;;4.17;;
33876;SDS011;20166;51.738;7.158;2024-01-30T04:23:36;8.30;;;4.30;;
33876;SDS011;20166;51.738;7.158;2024-01-30T04:26:23;5.57;;;4.00;;
33876;SDS011;20166;51.738;7.158;2024-01-30T04:29:09;7.40;;;5.00;;
33876;SDS011;20166;51.738;7.158;2024-01-30T04:31:55;6.87;;;3.93;;
33876;SDS011;20166;51.738;7.158;2024-01-30T04:34:43;7.07;;;5.00;;
33876;SDS011;20166;51.738;7.158;2024-01-30T04:37:29;5.97;;;4.47;;
33876;SDS011;20166;51.738;7.158;2024-01-30T04:40:16;5.20;;;3.90;;
33876;SDS011;20166;51.738;7.158;2024-01-30T04:43:02;7.83;;;4.20;;
33876;SDS011;20166;51.738;7.158;2024-01-30T04:45:49;6.53;;;4.30;;
33876;SDS011;20166;51.738;7.158;2024-01-30T04:48:36;6.97;;;4.40;;
33876;SDS011;20166;51.738;7.158;2024-01-30T04:51:23;7.27;;;4.07;;
33876;SDS011;20166;51.738;7.158;2024-01-30T04:54:10;8.30;;;4.20;;
33876;SDS011;20166;51.738;7.158;2024-01-30T04:56:56;7.93;;;4.50;;
33876;SDS011;20166;51.738;7.158;2024-01-30T04:59:43;6.93;;;3.97;;
33876;SDS011;20166;51.738;7.158;2024-01-30T05:02:29;4.13;;;3.27;;
33876;SDS011;20166;51.738;7.158;2024-01-30T05:05:16;6.00;;;4.10;;
33876;SDS011;20166;51.738;7.158;2024-01-30T05:08:04;5.07;;;3.80;;
33876;SDS011;20166;51.738;7.158;2024-01-30T05:10:50;9.87;;;5.90;;
33876;SDS011;20166;51.738;7.158;2024-01-30T05:13:36;6.57;;;4.60;;
33876;SDS011;20166;51.738;7.158;2024-01-30T05:16:23;7.60;;;4.83;;
33876;SDS011;20166;51.738;7.158;2024-01-30T05:19:09;5.77;;;3.73;;
33876;SDS011;20166;51.738;7.158;2024-01-30T05:21:56;9.63;;;3.83;;
33876;SDS011;20166;51.738;7.158;2024-01-30T05:24:43;6.57;;;4.27;;
33876;SDS011;20166;51.738;7.158;2024-01-30T05:27:30;8.20;;;4.40;;
33876;SDS011;20166;51.738;7.158;2024-01-30T05:30:16;8.33;;;4.33;;
33876;SDS011;20166;51.738;7.158;2024-01-30T05:33:03;6.03;;;4.07;;
33876;SDS011;20166;51.738;7.158;2024-01-30T05:35:49;5.60;;;3.83;;
33876;SDS011;20166;51.738;7.158;2024-01-30T05:38:39;6.37;;;3.90;;
33876;SDS011;20166;51.738;7.158;2024-01-30T05:41:26;5.17;;;4.00;;
33876;SDS011;20166;51.738;7.158;2024-01-30T05:44:13;5.40;;;3.43;;
33876;SDS011;20166;51.738;7.158;2024-01-30T05:46:59;6.83;;;4.60;;
33876;SDS011;20166;51.738;7.158;2024-01-30T05:49:46;6.33;;;3.67;;
33876;SDS011;20166;51.738;7.158;2024-01-30T05:52:32;7.53;;;4.60;;
33876;SDS011;20166;51.738;7.158;2024-01-30T05:55:18;4.87;;;3.60;;
33876;SDS011;20166;51.738;7.158;2024-01-30T05:58:06;7.90;;;4.30;;
33876;SDS011;20166;51.738;7.158;2024-01-30T06:00:53;6.03;;;4.00;;
33876;SDS011;20166;51.738;7.158;2024-01-30T06:03:39;8.33;;;5.20;;
33876;SDS011;20166;51.738;7.158;2024-01-30T06:06:26;6.03;;;4.27;;
33876;SDS011;20166;51.738;7.158;2024-01-30T06:09:12;8.13;;;4.03;;
33876;SDS011;20166;51.738;7.158;2024-01-30T06:11:58;7.63;;;4.03;;
33876;SDS011;20166;51.738;7.158;2024-01-30T06:14:46;4.33;;;3.90;;
33876;SDS011;20166;51.738;7.158;2024-01-30T06:17:32;8.70;;;4.10;;
33876;SDS011;20166;51.738;7.158;2024-01-30T06:20:19;8.50;;;4.47;;
33876;SDS011;20166;51.738;7.158;2024-01-30T06:23:05;8.23;;;4.20;;
33876;SDS011;20166;51.738;7.158;2024-01-30T06:25:52;4.87;;;3.53;;
33876;SDS011;20166;51.738;7.158;2024-01-30T06:28:38;5.20;;;4.00;;
33876;SDS011;20166;51.738;7.158;2024-01-30T06:31:26;7.07;;;4.13;;
33876;SDS011;20166;51.738;7.158;2024-01-30T06:34:12;10.33;;;4.87;;
33876;SDS011;20166;51.738;7.158;2024-01-30T06:36:58;5.87;;;3.50;;
33876;SDS011;20166;51.738;7.158;2024-01-30T06:39:45;8.27;;;4.30;;
33876;SDS011;20166;51.738;7.158;2024-01-30T06:42:31;8.97;;;4.10;;
33876;SDS011;20166;51.738;7.158;2024-01-30T06:45:17;4.70;;;3.17;;
33876;SDS011;20166;51.738;7.158;2024-01-30T06:48:06;6.73;;;4.47;;
33876;SDS011;20166;51.738;7.158;2024-01-30T06:50:53;6.53;;;4.20;;
33876;SDS011;20166;51.738;7.158;2024-01-30T06:53:40;5.77;;;4.27;;
33876;SDS011;20166;51.738;7.158;2024-01-30T06:56:26;6.33;;;4.33;;
33876;SDS011;20166;51.738;7.158;2024-01-30T06:59:12;7.60;;;4.50;;
33876;SDS011;20166;51.738;7.158;2024-01-30T07:01:58;9.00;;;4.63;;
33876;SDS011;20166;51.738;7.158;2024-01-30T07:04:46;8.20;;;4.37;;
33876;SDS011;20166;51.738;7.158;2024-01-30T07:07:33;11.90;;;4.47;;
33876;SDS011;20166;51.738;7.158;2024-01-30T07:10:19;7.53;;;4.73;;
33876;SDS011;20166;51.738;7.158;2024-01-30T07:13:05;8.67;;;4.63;;
33876;SDS011;20166;51.738;7.158;2024-01-30T07:15:53;9.00;;;4.17;;
33876;SDS011;20166;51.738;7.158;2024-01-30T07:18:39;7.20;;;4.03;;
33876;SDS011;20166;51.738;7.158;2024-01-30T07:21:27;8.67;;;5.00;;
33876;SDS011;20166;51.738;7.158;2024-01-30T07:24:13;10.53;;;4.37;;
33876;SDS011;20166;51.738;7.158;2024-01-30T07:27:00;5.43;;;3.67;;
33876;SDS011;20166;51.738;7.158;2024-01-30T07:29:46;6.37;;;3.80;;
33876;SDS011;20166;51.738;7.158;2024-01-30T07:32:35;6.47;;;4.20;;
33876;SDS011;20166;51.738;7.158;2024-01-30T07:35:21;9.23;;;4.83;;
33876;SDS011;20166;51.738;7.158;2024-01-30T07:38:09;6.63;;;4.27;;
33876;SDS011;20166;51.738;7.158;2024-01-30T07:40:55;5.63;;;4.30;;
33876;SDS011;20166;51.738;7.158;2024-01-30T07:43:42;8.83;;;4.30;;
33876;SDS011;20166;51.738;7.158;2024-01-30T07:46:29;9.23;;;4.10;;
33876;SDS011;20166;51.738;7.158;2024-01-30T07:49:16;5.97;;;4.10;;
33876;SDS011;20166;51.738;7.158;2024-01-30T07:52:02;5.53;;;3.97;;
33876;SDS011;20166;51.738;7.158;2024-01-30T07:54:53;6.63;;;4.30;;
33876;SDS011;20166;51.738;7.158;2024-01-30T07:57:40;5.57;;;3.93;;
33876;SDS011;20166;51.738;7.158;2024-01-30T08:00:27;4.60;;;3.87;;
33876;SDS011;20166;51.738;7.158;2024-01-30T08:03:14;5.13;;;3.93;;
33876;SDS011;20166;51.738;7.158;2024-01-30T08:06:01;6.87;;;4.03;;
33876;SDS011;20166;51.738;7.158;2024-01-30T08:08:48;7.03;;;4.20;;
33876;SDS011;20166;51.738;7.158;2024-01-30T08:11:36;7.13;;;4.80;;
33876;SDS011;20166;51.738;7.158;2024-01-30T08:14:22;9.83;;;3.73;;
33876;SDS011;20166;51.738;7.158;2024-01-30T08:17:09;13.17;;;5.00;;
33876;SDS011;20166;51.738;7.158;2024-01-30T08:19:55;8.03;;;4.63;;
33876;SDS011;20166;51.738;7.158;2024-01-30T08:22:42;6.70;;;4.90;;
33876;SDS011;20166;51.738;7.158;2024-01-30T08:25:29;12.87;;;4.97;;
33876;SDS011;20166;51.738;7.158;2024-01-30T08:28:17;8.30;;;4.80;;
33876;SDS011;20166;51.738;7.158;2024-01-30T08:31:05;9.67;;;5.33;;
33876;SDS011;20166;51.738;7.158;2024-01-30T08:33:52;9.60;;;4.70;;
33876;SDS011;20166;51.738;7.158;2024-01-30T08:36:38;12.47;;;5.30;;
33876;SDS011;20166;51.738;7.158;2024-01-30T08:39:24;8.60;;;4.80;;
33876;SDS011;20166;51.738;7.158;2024-01-30T08:42:11;8.97;;;5.17;;
33876;SDS011;20166;51.738;7.158;2024-01-30T08:44:58;8.37;;;5.13;;
33876;SDS011;20166;51.738;7.158;2024-01-30T08:47:45;9.30;;;5.37;;
33876;SDS011;20166;51.738;7.158;2024-01-30T08:50:31;10.33;;;5.40;;
33876;SDS011;20166;51.738;7.158;2024-01-30T08:53:17;8.47;;;5.30;;
33876;SDS011;20166;51.738;7.158;2024-01-30T08:56:05;7.40;;;5.17;;
33876;SDS011;20166;51.738;7.158;2024-01-30T08:58:52;10.80;;;4.70;;
33876;SDS011;20166;51.738;7.158;2024-01-30T09:01:40;7.43;;;4.43;;
33876;SDS011;20166;51.738;7.158;2024-01-30T09:04:39;9.13;;;4.73;;
33876;SDS011;20166;51.738;7.158;2024-01-30T09:07:25;7.03;;;5.23;;
33876;SDS011;20166;51.738;7.158;2024-01-30T09:10:12;8.20;;;4.77;;
33876;SDS011;20166;51.738;7.158;2024-01-30T09:13:01;8.27;;;4.83;;
33876;SDS011;20166;51.738;7.158;2024-01-30T09:15:47;9.57;;;5.13;;
33876;SDS011;20166;51.738;7.158;2024-01-30T09:18:35;6.93;;;4.30;;
33876;SDS011;20166;51.738;7.158;2024-01-30T09:21:21;9.57;;;4.67;;
33876;SDS011;20166;51.738;7.158;2024-01-30T09:24:08;6.90;;;4.17;;
33876;SDS011;20166;51.738;7.158;2024-01-30T09:26:54;6.97;;;4.60;;
33876;SDS011;20166;51.738;7.158;2024-01-30T09:29:40;7.77;;;4.80;;
33876;SDS011;20166;51.738;7.158;2024-01-30T09:32:27;6.07;;;4.30;;
33876;SDS011;20166;51.738;7.158;2024-01-30T09:35:14;14.47;;;5.23;;
33876;SDS011;20166;51.738;7.158;2024-01-30T09:38:01;10.60;;;5.33;;
33876;SDS011;20166;51.738;7.158;2024-01-30T09:40:49;18.43;;;5.53;;
33876;SDS011;20166;51.738;7.158;2024-01-30T09:43:39;9.40;;;5.17;;
33876;SDS011;20166;51.738;7.158;2024-01-30T09:46:26;11.10;;;5.70;;
33876;SDS011;20166;51.738;7.158;2024-01-30T09:49:14;9.10;;;5.60;;
33876;SDS011;20166;51.738;7.158;2024-01-30T09:52:05;13.27;;;5.60;;
33876;SDS011;20166;51.738;7.158;2024-01-30T09:54:53;10.03;;;5.07;;
33876;SDS011;20166;51.738;7.158;2024-01-30T09:57:41;8.40;;;5.77;;
33876;SDS011;20166;51.738;7.158;2024-01-30T10:00:28;10.27;;;5.63;;
33876;SDS011;20166;51.738;7.158;2024-01-30T10:03:14;11.50;;;5.37;;
33876;SDS011;20166;51.738;7.158;2024-01-30T10:06:00;7.33;;;4.53;;
33876;SDS011;20166;51.738;7.158;2024-01-30T10:08:48;7.57;;;4.77;;
33876;SDS011;20166;51.738;7.158;2024-01-30T10:11:35;10.53;;;4.47;;
33876;SDS011;20166;51.738;7.158;2024-01-30T10:14:22;7.50;;;5.00;;
33876;SDS011;20166;51.738;7.158;2024-01-30T10:17:09;7.67;;;4.80;;
33876;SDS011;20166;51.738;7.158;2024-01-30T10:20:08;6.43;;;4.30;;
33876;SDS011;20166;51.738;7.158;2024-01-30T10:22:56;7.73;;;4.60;;
33876;SDS011;20166;51.738;7.158;2024-01-30T10:25:45;7.67;;;4.70;;
33876;SDS011;20166;51.738;7.158;2024-01-30T10:28:31;5.80;;;3.87;;
33876;SDS011;20166;51.738;7.158;2024-01-30T10:31:17;7.33;;;4.47;;
33876;SDS011;20166;51.738;7.158;2024-01-30T10:34:04;9.97;;;4.07;;
33876;SDS011;20166;51.738;7.158;2024-01-30T10:37:06;7.37;;;5.10;;
33876;SDS011;20166;51.738;7.158;2024-01-30T10:39:57;8.13;;;4.97;;
33876;SDS011;20166;51.738;7.158;2024-01-30T10:42:52;7.00;;;4.13;;
33876;SDS011;20166;51.738;7.158;2024-01-30T10:45:41;9.23;;;4.40;;
33876;SDS011;20166;51.738;7.158;2024-01-30T10:48:32;8.90;;;4.77;;
33876;SDS011;20166;51.738;7.158;2024-01-30T10:51:25;8.83;;;4.97;;
33876;SDS011;20166;51.738;7.158;2024-01-30T10:54:12;7.10;;;3.97;;
33876;SDS011;20166;51.738;7.158;2024-01-30T10:56:59;9.37;;;4.60;;
33876;SDS011;20166;51.738;7.158;2024-01-30T10:59:49;5.87;;;4.00;;
33876;SDS011;20166;51.738;7.158;2024-01-30T11:02:37;5.83;;;3.93;;
33876;SDS011;20166;51.738;7.158;2024-01-30T11:05:26;9.77;;;4.43;;
33876;SDS011;20166;51.738;7.158;2024-01-30T11:08:22;7.13;;;4.17;;
33876;SDS011;20166;51.738;7.158;2024-01-30T11:11:10;7.73;;;4.63;;
33876;SDS011;20166;51.738;7.158;2024-01-30T11:14:00;10.00;;;4.60;;
33876;SDS011;20166;51.738;7.158;2024-01-30T11:16:48;6.57;;;4.37;;
33876;SDS011;20166;51.738;7.158;2024-01-30T11:19:35;9.07;;;5.10;;
33876;SDS011;20166;51.738;7.158;2024-01-30T11:22:21;9.37;;;4.50;;
33876;SDS011;20166;51.738;7.158;2024-01-30T11:25:10;8.70;;;4.63;;
33876;SDS011;20166;51.738;7.158;2024-01-30T11:27:57;9.63;;;4.13;;
33876;SDS011;20166;51.738;7.158;2024-01-30T11:30:43;11.57;;;5.00;;
33876;SDS011;20166;51.738;7.158;2024-01-30T11:33:33;6.87;;;4.60;;
33876;SDS011;20166;51.738;7.158;2024-01-30T11:36:21;8.47;;;4.90;;
33876;SDS011;20166;51.738;7.158;2024-01-30T11:39:12;8.97;;;4.77;;
33876;SDS011;20166;51.738;7.158;2024-01-30T11:42:01;6.80;;;4.53;;
33876;SDS011;20166;51.738;7.158;2024-01-30T11:44:50;9.00;;;5.20;;
33876;SDS011;20166;51.738;7.158;2024-01-30T11:47:37;10.00;;;4.50;;
33876;SDS011;20166;51.738;7.158;2024-01-30T11:50:29;8.07;;;4.57;;
33876;SDS011;20166;51.738;7.158;2024-01-30T11:53:16;7.40;;;4.77;;
33876;SDS011;20166;51.738;7.158;2024-01-30T11:56:03;8.17;;;4.83;;
33876;SDS011;20166;51.738;7.158;2024-01-30T11:58:53;7.47;;;4.70;;
33876;SDS011;20166;51.738;7.158;2024-01-30T12:01:39;12.80;;;4.87;;
33876;SDS011;20166;51.738;7.158;2024-01-30T12:04:27;7.20;;;4.73;;
33876;SDS011;20166;51.738;7.158;2024-01-30T12:07:15;9.27;;;5.00;;
33876;SDS011;20166;51.738;7.158;2024-01-30T12:10:02;7.27;;;4.90;;
33876;SDS011;20166;51.738;7.158;2024-01-30T12:12:50;10.27;;;4.87;;
33876;SDS011;20166;51.738;7.158;2024-01-30T12:15:37;9.83;;;5.00;;
33876;SDS011;20166;51.738;7.158;2024-01-30T12:18:23;12.43;;;5.17;;
33876;SDS011;20166;51.738;7.158;2024-01-30T12:21:10;11.70;;;4.87;;
33876;SDS011;20166;51.738;7.158;2024-01-30T12:23:57;9.17;;;5.20;;
33876;SDS011;20166;51.738;7.158;2024-01-30T12:26:45;9.57;;;5.63;;
33876;SDS011;20166;51.738;7.158;2024-01-30T12:29:31;7.27;;;4.60;;
33876;SDS011;20166;51.738;7.158;2024-01-30T12:32:23;7.77;;;5.07;;
33876;SDS011;20166;51.738;7.158;2024-01-30T12:35:09;9.03;;;4.87;;
33876;SDS011;20166;51.738;7.158;2024-01-30T12:37:56;7.50;;;4.77;;
33876;SDS011;20166;51.738;7.158;2024-01-30T12:40:44;8.23;;;4.67;;
33876;SDS011;20166;51.738;7.158;2024-01-30T12:43:31;11.77;;;5.33;;
33876;SDS011;20166;51.738;7.158;2024-01-30T12:46:25;7.77;;;4.50;;
33876;SDS011;20166;51.738;7.158;2024-01-30T12:49:13;6.80;;;4.43;;
33876;SDS011;20166;51.738;7.158;2024-01-30T12:52:00;8.97;;;5.03;;
33876;SDS011;20166;51.738;7.158;2024-01-30T12:54:47;9.30;;;5.00;;
33876;SDS011;20166;51.738;7.158;2024-01-30T12:57:34;15.60;;;5.07;;
33876;SDS011;20166;51.738;7.158;2024-01-30T13:00:20;8.43;;;4.53;;
33876;SDS011;20166;51.738;7.158;2024-01-30T13:03:07;9.50;;;5.07;;
33876;SDS011;20166;51.738;7.158;2024-01-30T13:05:55;9.73;;;5.10;;
33876;SDS011;20166;51.738;7.158;2024-01-30T13:08:42;9.60;;;4.97;;
33876;SDS011;20166;51.738;7.158;2024-01-30T13:11:28;7.57;;;4.67;;
33876;SDS011;20166;51.738;7.158;2024-01-30T13:14:16;11.23;;;5.40;;
33876;SDS011;20166;51.738;7.158;2024-01-30T13:17:02;7.03;;;4.50;;
33876;SDS011;20166;51.738;7.158;2024-01-30T13:19:49;8.57;;;4.63;;
33876;SDS011;20166;51.738;7.158;2024-01-30T13:22:36;10.27;;;4.60;;
33876;SDS011;20166;51.738;7.158;2024-01-30T13:25:23;8.93;;;4.83;;
33876;SDS011;20166;51.738;7.158;2024-01-30T13:28:10;8.23;;;4.80;;
33876;SDS011;20166;51.738;7.158;2024-01-30T13:30:57;12.10;;;5.20;;
33876;SDS011;20166;51.738;7.158;2024-01-30T13:33:44;6.30;;;4.57;;
33876;SDS011;20166;51.738;7.158;2024-01-30T13:36:30;8.30;;;5.10;;
33876;SDS011;20166;51.738;7.158;2024-01-30T13:39:17;6.50;;;4.37;;
33876;SDS011;20166;51.738;7.158;2024-01-30T13:42:07;14.70;;;5.30;;
33876;SDS011;20166;51.738;7.158;2024-01-30T13:44:53;9.43;;;5.30;;
33876;SDS011;20166;51.738;7.158;2024-01-30T13:47:41;12.90;;;5.83;;
33876;SDS011;20166;51.738;7.158;2024-01-30T13:50:27;9.33;;;5.00;;
33876;SDS011;20166;51.738;7.158;2024-01-30T13:53:14;8.43;;;4.57;;
33876;SDS011;20166;51.738;7.158;2024-01-30T13:56:00;11.40;;;4.67;;
33876;SDS011;20166;51.738;7.158;2024-01-30T13:58:47;6.63;;;4.60;;
33876;SDS011;20166;51.738;7.158;2024-01-30T14:01:34;9.97;;;4.73;;
33876;SDS011;20166;51.738;7.158;2024-01-30T14:04:22;9.43;;;5.40;;
33876;SDS011;20166;51.738;7.158;2024-01-30T14:07:08;9.03;;;4.77;;
33876;SDS011;20166;51.738;7.158;2024-01-30T14:09:54;9.77;;;4.87;;
33876;SDS011;20166;51.738;7.158;2024-01-30T14:12:41;9.10;;;5.30;;
33876;SDS011;20166;51.738;7.158;2024-01-30T14:15:28;11.33;;;6.27;;
33876;SDS011;20166;51.738;7.158;2024-01-30T14:18:14;10.53;;;5.30;;
33876;SDS011;20166;51.738;7.158;2024-01-30T14:21:02;8.27;;;4.77;;
33876;SDS011;20166;51.738;7.158;2024-01-30T14:23:48;7.03;;;4.70;;
33876;SDS011;20166;51.738;7.158;2024-01-30T14:26:34;8.70;;;5.30;;
33876;SDS011;20166;51.738;7.158;2024-01-30T14:29:21;9.17;;;4.93;;
33876;SDS011;20166;51.738;7.158;2024-01-30T14:32:08;9.10;;;4.70;;
33876;SDS011;20166;51.738;7.158;2024-01-30T14:34:54;7.37;;;5.00;;
33876;SDS011;20166;51.738;7.158;2024-01-30T14:37:42;7.90;;;4.97;;
33876;SDS011;20166;51.738;7.158;2024-01-30T14:40:28;8.43;;;5.30;;
33876;SDS011;20166;51.738;7.158;2024-01-30T14:43:15;7.87;;;5.07;;
33876;SDS011;20166;51.738;7.158;2024-01-30T14:46:01;9.77;;;5.47;;
33876;SDS011;20166;51.738;7.158;2024-01-30T14:48:48;9.67;;;5.20;;
33876;SDS011;20166;51.738;7.158;2024-01-30T14:51:36;8.50;;;5.17;;
33876;SDS011;20166;51.738;7.158;2024-01-30T14:54:24;9.60;;;5.50;;
33876;SDS011;20166;51.738;7.158;2024-01-30T14:57:10;11.27;;;5.63;;
33876;SDS011;20166;51.738;7.158;2024-01-30T14:59:59;7.73;;;5.23;;
33876;SDS011;20166;51.738;7.158;2024-01-30T15:02:45;11.03;;;5.33;;
33876;SDS011;20166;51.738;7.158;2024-01-30T15:05:32;7.13;;;4.80;;
33876;SDS011;20166;51.738;7.158;2024-01-30T15:08:18;9.07;;;4.70;;
33876;SDS011;20166;51.738;7.158;2024-01-30T15:11:06;11.13;;;4.43;;
33876;SDS011;20166;51.738;7.158;2024-01-30T15:13:52;7.30;;;4.30;;
33876;SDS011;20166;51.738;7.158;2024-01-30T15:16:39;8.10;;;3.73;;
33876;SDS011;20166;51.738;7.158;2024-01-30T15:19:25;5.20;;;3.90;;
33876;SDS011;20166;51.738;7.158;2024-01-30T15:22:12;5.20;;;3.07;;
33876;SDS011;20166;51.738;7.158;2024-01-30T15:24:59;6.03;;;3.47;;
33876;SDS011;20166;51.738;7.158;2024-01-30T15:27:47;3.93;;;3.00;;
33876;SDS011;20166;51.738;7.158;2024-01-30T15:30:33;6.40;;;2.73;;
33876;SDS011;20166;51.738;7.158;2024-01-30T15:33:19;2.63;;;2.00;;
33876;SDS011;20166;51.738;7.158;2024-01-30T15:36:05;2.63;;;1.77;;
33876;SDS011;20166;51.738;7.158;2024-01-30T15:38:52;4.30;;;1.70;;
33876;SDS011;20166;51.738;7.158;2024-01-30T15:41:38;4.10;;;2.07;;
33876;SDS011;20166;51.738;7.158;2024-01-30T15:44:26;2.37;;;1.37;;
33876;SDS011;20166;51.738;7.158;2024-01-30T15:47:12;1.70;;;1.27;;
33876;SDS011;20166;51.738;7.158;2024-01-30T15:49:59;2.63;;;1.47;;
33876;SDS011;20166;51.738;7.158;2024-01-30T15:52:45;2.80;;;1.43;;
33876;SDS011;20166;51.738;7.158;2024-01-30T15:55:31;1.50;;;1.37;;
33876;SDS011;20166;51.738;7.158;2024-01-30T15:58:17;2.70;;;1.00;;
33876;SDS011;20166;51.738;7.158;2024-01-30T16:01:05;4.33;;;1.20;;
33876;SDS011;20166;51.738;7.158;2024-01-30T16:03:51;0.90;;;0.90;;
33876;SDS011;20166;51.738;7.158;2024-01-30T16:06:37;1.23;;;1.13;;
33876;SDS011;20166;51.738;7.158;2024-01-30T16:09:24;2.63;;;1.20;;
33876;SDS011;20166;51.738;7.158;2024-01-30T16:12:10;1.10;;;1.00;;
33876;SDS011;20166;51.738;7.158;2024-01-30T16:14:56;1.33;;;1.10;;
33876;SDS011;20166;51.738;7.158;2024-01-30T16:17:45;0.97;;;0.97;;
33876;SDS011;20166;51.738;7.158;2024-01-30T16:20:31;1.87;;;1.13;;
33876;SDS011;20166;51.738;7.158;2024-01-30T16:23:17;1.00;;;1.00;;
33876;SDS011;20166;51.738;7.158;2024-01-30T16:26:04;1.20;;;1.17;;
33876;SDS011;20166;51.738;7.158;2024-01-30T16:28:50;2.07;;;1.10;;
33876;SDS011;20166;51.738;7.158;2024-01-30T16:31:37;2.43;;;1.20;;
33876;SDS011;20166;51.738;7.158;2024-01-30T16:34:25;1.53;;;1.10;;
33876;SDS011;20166;51.738;7.158;2024-01-30T16:37:11;1.10;;;1.10;;
33876;SDS011;20166;51.738;7.158;2024-01-30T16:39:57;2.17;;;1.10;;
33876;SDS011;20166;51.738;7.158;2024-01-30T16:42:43;1.23;;;1.13;;
33876;SDS011;20166;51.738;7.158;2024-01-30T16:45:30;1.53;;;1.10;;